sensor_id;sensor_type;location;lat;lon;timestamp;pressure;altitude;pressure_sealevel;temperature;humidity
5053;BME280;2545;50.892;5.740;2022-10-16T00:01:57;56308.19;;;-142.21;100.00
5053;BME280;2545;50.892;5.740;2022-10-16T00:04:23;56284.66;;;-142.21;100.00
5053;BME280;2545;50.892;5.740;2022-10-16T00:06:48;56292.50;;;-142.21;100.00
5053;BME280;2545;50.892;5.740;2022-10-16T00:09:13;56270.91;;;-142.21;100.00
5053;BME280;2545;50.892;5.740;2022-10-16T00:11:39;56296.41;;;-142.21;100.00
5053;BME280;2545;50.892;5.740;2022-10-16T00:14:09;56300.34;;;-142.21;100.00
5053;BME280;2545;50.892;5.740;2022-10-16T00:16:35;56280.72;;;-142.21;100.00
5053;BME280;2545;50.892;5.740;2022-10-16T00:19:01;56296.41;;;-142.21;100.00
5053;BME280;2545;50.892;5.740;2022-10-16T00:21:28;56306.22;;;-142.21;100.00
5053;BME280;2545;50.892;5.740;2022-10-16T00:23:56;56316.03;;;-142.21;100.00
5053;BME280;2545;50.892;5.740;2022-10-16T00:26:22;56325.84;;;-142.21;100.00
5053;BME280;2545;50.892;5.740;2022-10-16T00:28:49;56292.50;;;-142.21;100.00
5053;BME280;2545;50.892;5.740;2022-10-16T00:31:16;56261.13;;;-142.21;100.00
5053;BME280;2545;50.892;5.740;2022-10-16T00:33:42;56304.25;;;-142.21;100.00
5053;BME280;2545;50.892;5.740;2022-10-16T00:36:11;56272.88;;;-142.21;100.00
5053;BME280;2545;50.892;5.740;2022-10-16T00:38:38;56331.72;;;-142.21;100.00
5053;BME280;2545;50.892;5.740;2022-10-16T00:41:05;56319.94;;;-142.21;100.00
5053;BME280;2545;50.892;5.740;2022-10-16T00:43:56;56286.63;;;-142.21;100.00
5053;BME280;2545;50.892;5.740;2022-10-16T00:46:28;56290.53;;;-142.21;100.00
5053;BME280;2545;50.892;5.740;2022-10-16T00:49:00;56321.91;;;-142.21;100.00
5053;BME280;2545;50.892;5.740;2022-10-16T00:51:34;56290.53;;;-142.21;100.00
5053;BME280;2545;50.892;5.740;2022-10-16T00:54:01;56239.56;;;-142.21;100.00
5053;BME280;2545;50.892;5.740;2022-10-16T00:56:27;56278.78;;;-142.21;100.00
5053;BME280;2545;50.892;5.740;2022-10-16T00:58:53;56314.06;;;-142.21;100.00
5053;BME280;2545;50.892;5.740;2022-10-16T01:01:18;56288.56;;;-142.21;100.00
5053;BME280;2545;50.892;5.740;2022-10-16T01:03:44;56298.38;;;-142.21;100.00
5053;BME280;2545;50.892;5.740;2022-10-16T01:06:23;56294.47;;;-142.21;100.00
5053;BME280;2545;50.892;5.740;2022-10-16T01:09:12;56312.09;;;-142.21;100.00
5053;BME280;2545;50.892;5.740;2022-10-16T01:12:06;56323.88;;;-142.21;100.00
5053;BME280;2545;50.892;5.740;2022-10-16T01:17:32;56308.19;;;-142.21;100.00
5053;BME280;2545;50.892;5.740;2022-10-16T01:20:06;56321.91;;;-142.21;100.00
5053;BME280;2545;50.892;5.740;2022-10-16T01:22:59;56282.69;;;-142.21;100.00
5053;BME280;2545;50.892;5.740;2022-10-16T01:25:41;56290.53;;;-142.21;100.00
5053;BME280;2545;50.892;5.740;2022-10-16T01:28:13;56308.19;;;-142.21;100.00
5053;BME280;2545;50.892;5.740;2022-10-16T01:30:42;56304.25;;;-142.21;100.00
5053;BME280;2545;50.892;5.740;2022-10-16T01:35:39;56288.56;;;-142.21;100.00
5053;BME280;2545;50.892;5.740;2022-10-16T01:38:10;56276.81;;;-142.21;100.00
5053;BME280;2545;50.892;5.740;2022-10-16T01:40:39;56272.88;;;-142.21;100.00
5053;BME280;2545;50.892;5.740;2022-10-16T01:43:12;56284.66;;;-142.21;100.00
5053;BME280;2545;50.892;5.740;2022-10-16T01:45:41;56286.63;;;-142.21;100.00
5053;BME280;2545;50.892;5.740;2022-10-16T01:48:11;56310.13;;;-142.21;100.00
5053;BME280;2545;50.892;5.740;2022-10-16T01:50:39;56288.56;;;-142.21;100.00
5053;BME280;2545;50.892;5.740;2022-10-16T01:53:09;56296.41;;;-142.21;100.00
5053;BME280;2545;50.892;5.740;2022-10-16T01:55:43;56276.81;;;-142.21;100.00
5053;BME280;2545;50.892;5.740;2022-10-16T01:58:13;56300.34;;;-142.21;100.00
5053;BME280;2545;50.892;5.740;2022-10-16T02:00:42;56308.19;;;-142.21;100.00
5053;BME280;2545;50.892;5.740;2022-10-16T02:03:09;56267.00;;;-142.21;100.00
5053;BME280;2545;50.892;5.740;2022-10-16T02:06:06;56300.34;;;-142.21;100.00
5053;BME280;2545;50.892;5.740;2022-10-16T02:08:32;56321.91;;;-142.21;100.00
5053;BME280;2545;50.892;5.740;2022-10-16T02:10:58;56319.94;;;-142.21;100.00
5053;BME280;2545;50.892;5.740;2022-10-16T02:16:06;56298.38;;;-142.21;100.00
5053;BME280;2545;50.892;5.740;2022-10-16T02:18:31;56300.34;;;-142.21;100.00
5053;BME280;2545;50.892;5.740;2022-10-16T02:23:44;56294.47;;;-142.21;100.00
5053;BME280;2545;50.892;5.740;2022-10-16T02:26:13;56312.09;;;-142.21;100.00
5053;BME280;2545;50.892;5.740;2022-10-16T02:28:45;56304.25;;;-142.21;100.00
5053;BME280;2545;50.892;5.740;2022-10-16T02:31:13;56304.25;;;-142.21;100.00
5053;BME280;2545;50.892;5.740;2022-10-16T02:33:42;56302.28;;;-142.21;100.00
5053;BME280;2545;50.892;5.740;2022-10-16T02:36:09;56265.03;;;-142.21;100.00
5053;BME280;2545;50.892;5.740;2022-10-16T02:38:35;56314.06;;;-142.21;100.00
5053;BME280;2545;50.892;5.740;2022-10-16T02:41:01;56319.94;;;-142.21;100.00
5053;BME280;2545;50.892;5.740;2022-10-16T02:43:27;56314.06;;;-142.21;100.00
5053;BME280;2545;50.892;5.740;2022-10-16T02:45:52;56335.63;;;-142.21;100.00
5053;BME280;2545;50.892;5.740;2022-10-16T02:48:17;56317.97;;;-142.21;100.00
5053;BME280;2545;50.892;5.740;2022-10-16T02:50:42;56272.88;;;-142.21;100.00
5053;BME280;2545;50.892;5.740;2022-10-16T02:53:08;56296.41;;;-142.21;100.00
5053;BME280;2545;50.892;5.740;2022-10-16T02:55:33;56282.69;;;-142.21;100.00
5053;BME280;2545;50.892;5.740;2022-10-16T02:57:58;56337.59;;;-142.21;100.00
5053;BME280;2545;50.892;5.740;2022-10-16T03:00:24;56319.94;;;-142.21;100.00
5053;BME280;2545;50.892;5.740;2022-10-16T03:02:49;56310.13;;;-142.21;100.00
5053;BME280;2545;50.892;5.740;2022-10-16T03:05:15;56323.88;;;-142.21;100.00
5053;BME280;2545;50.892;5.740;2022-10-16T03:07:40;56296.41;;;-142.21;100.00
5053;BME280;2545;50.892;5.740;2022-10-16T03:10:06;56331.72;;;-142.21;100.00
5053;BME280;2545;50.892;5.740;2022-10-16T03:12:31;56282.69;;;-142.21;100.00
5053;BME280;2545;50.892;5.740;2022-10-16T03:14:57;56306.22;;;-142.21;100.00
5053;BME280;2545;50.892;5.740;2022-10-16T03:17:23;56335.63;;;-142.21;100.00
5053;BME280;2545;50.892;5.740;2022-10-16T03:19:49;56335.63;;;-142.21;100.00
5053;BME280;2545;50.892;5.740;2022-10-16T03:22:14;56314.06;;;-142.21;100.00
5053;BME280;2545;50.892;5.740;2022-10-16T03:24:40;56280.72;;;-142.21;100.00
5053;BME280;2545;50.892;5.740;2022-10-16T03:27:05;56265.03;;;-142.21;100.00
5053;BME280;2545;50.892;5.740;2022-10-16T03:29:31;56316.03;;;-142.21;100.00
5053;BME280;2545;50.892;5.740;2022-10-16T03:31:58;56310.13;;;-142.21;100.00
5053;BME280;2545;50.892;5.740;2022-10-16T03:34:23;56302.28;;;-142.21;100.00
5053;BME280;2545;50.892;5.740;2022-10-16T03:36:49;56274.84;;;-142.21;100.00
5053;BME280;2545;50.892;5.740;2022-10-16T03:39:14;56274.84;;;-142.21;100.00
5053;BME280;2545;50.892;5.740;2022-10-16T03:41:40;56288.56;;;-142.21;100.00
5053;BME280;2545;50.892;5.740;2022-10-16T03:44:05;56288.56;;;-142.21;100.00
5053;BME280;2545;50.892;5.740;2022-10-16T03:46:31;56321.91;;;-142.21;100.00
5053;BME280;2545;50.892;5.740;2022-10-16T03:48:56;56321.91;;;-142.21;100.00
5053;BME280;2545;50.892;5.740;2022-10-16T03:51:21;56292.50;;;-142.21;100.00
5053;BME280;2545;50.892;5.740;2022-10-16T03:53:47;56317.97;;;-142.21;100.00
5053;BME280;2545;50.892;5.740;2022-10-16T03:56:12;56286.63;;;-142.21;100.00
5053;BME280;2545;50.892;5.740;2022-10-16T03:58:37;56302.28;;;-142.21;100.00
5053;BME280;2545;50.892;5.740;2022-10-16T04:01:03;56321.91;;;-142.21;100.00
5053;BME280;2545;50.892;5.740;2022-10-16T04:03:28;56288.56;;;-142.21;100.00
5053;BME280;2545;50.892;5.740;2022-10-16T04:05:54;56296.41;;;-142.21;100.00
5053;BME280;2545;50.892;5.740;2022-10-16T04:08:19;56310.13;;;-142.21;100.00
5053;BME280;2545;50.892;5.740;2022-10-16T04:10:45;56314.06;;;-142.21;100.00
5053;BME280;2545;50.892;5.740;2022-10-16T04:13:11;56325.84;;;-142.21;100.00
5053;BME280;2545;50.892;5.740;2022-10-16T04:15:37;56323.88;;;-142.21;100.00
5053;BME280;2545;50.892;5.740;2022-10-16T04:18:03;56341.53;;;-142.21;100.00
5053;BME280;2545;50.892;5.740;2022-10-16T04:20:28;56292.50;;;-142.21;100.00
5053;BME280;2545;50.892;5.740;2022-10-16T04:22:54;56331.72;;;-142.21;100.00
5053;BME280;2545;50.892;5.740;2022-10-16T04:25:19;56292.50;;;-142.21;100.00
5053;BME280;2545;50.892;5.740;2022-10-16T04:27:44;56314.06;;;-142.21;100.00
5053;BME280;2545;50.892;5.740;2022-10-16T04:30:10;56331.72;;;-142.21;100.00
5053;BME280;2545;50.892;5.740;2022-10-16T04:32:35;56335.63;;;-142.21;100.00
5053;BME280;2545;50.892;5.740;2022-10-16T04:35:00;56312.09;;;-142.21;100.00
5053;BME280;2545;50.892;5.740;2022-10-16T04:37:27;56317.97;;;-142.21;100.00
5053;BME280;2545;50.892;5.740;2022-10-16T04:39:53;56333.69;;;-142.21;100.00
5053;BME280;2545;50.892;5.740;2022-10-16T04:42:20;56323.88;;;-142.21;100.00
5053;BME280;2545;50.892;5.740;2022-10-16T04:44:45;56308.19;;;-142.21;100.00
5053;BME280;2545;50.892;5.740;2022-10-16T04:47:10;56323.88;;;-142.21;100.00
5053;BME280;2545;50.892;5.740;2022-10-16T04:49:36;56276.81;;;-142.21;100.00
5053;BME280;2545;50.892;5.740;2022-10-16T04:52:01;56331.72;;;-142.21;100.00
5053;BME280;2545;50.892;5.740;2022-10-16T04:54:27;56343.47;;;-142.21;100.00
5053;BME280;2545;50.892;5.740;2022-10-16T04:56:52;56312.09;;;-142.21;100.00
5053;BME280;2545;50.892;5.740;2022-10-16T04:59:18;56314.06;;;-142.21;100.00
5053;BME280;2545;50.892;5.740;2022-10-16T05:01:45;56312.09;;;-142.21;100.00
5053;BME280;2545;50.892;5.740;2022-10-16T05:04:11;56343.47;;;-142.21;100.00
5053;BME280;2545;50.892;5.740;2022-10-16T05:06:37;56339.56;;;-142.21;100.00
5053;BME280;2545;50.892;5.740;2022-10-16T05:09:04;56300.34;;;-142.21;100.00
5053;BME280;2545;50.892;5.740;2022-10-16T05:11:29;56331.72;;;-142.21;100.00
5053;BME280;2545;50.892;5.740;2022-10-16T05:13:55;56306.22;;;-142.21;100.00
5053;BME280;2545;50.892;5.740;2022-10-16T05:16:20;56296.41;;;-142.21;100.00
5053;BME280;2545;50.892;5.740;2022-10-16T05:18:45;56343.47;;;-142.21;100.00
5053;BME280;2545;50.892;5.740;2022-10-16T05:21:10;56347.41;;;-142.21;100.00
5053;BME280;2545;50.892;5.740;2022-10-16T05:23:36;56292.50;;;-142.21;100.00
5053;BME280;2545;50.892;5.740;2022-10-16T05:26:01;56331.72;;;-142.21;100.00
5053;BME280;2545;50.892;5.740;2022-10-16T05:28:28;56284.66;;;-142.21;100.00
5053;BME280;2545;50.892;5.740;2022-10-16T05:30:54;56319.94;;;-142.21;100.00
5053;BME280;2545;50.892;5.740;2022-10-16T05:33:20;56284.66;;;-142.21;100.00
5053;BME280;2545;50.892;5.740;2022-10-16T05:35:46;56294.47;;;-142.21;100.00
5053;BME280;2545;50.892;5.740;2022-10-16T05:38:11;56339.56;;;-142.21;100.00
5053;BME280;2545;50.892;5.740;2022-10-16T05:40:36;56316.03;;;-142.21;100.00
5053;BME280;2545;50.892;5.740;2022-10-16T05:43:02;56339.56;;;-142.21;100.00
5053;BME280;2545;50.892;5.740;2022-10-16T05:45:27;56316.03;;;-142.21;100.00
5053;BME280;2545;50.892;5.740;2022-10-16T05:47:52;56272.88;;;-142.21;100.00
5053;BME280;2545;50.892;5.740;2022-10-16T05:50:18;56304.25;;;-142.21;100.00
5053;BME280;2545;50.892;5.740;2022-10-16T05:52:43;56341.53;;;-142.21;100.00
5053;BME280;2545;50.892;5.740;2022-10-16T05:55:08;56347.41;;;-142.21;100.00
5053;BME280;2545;50.892;5.740;2022-10-16T05:57:34;56331.72;;;-142.21;100.00
5053;BME280;2545;50.892;5.740;2022-10-16T05:59:59;56314.06;;;-142.21;100.00
5053;BME280;2545;50.892;5.740;2022-10-16T06:02:24;56337.59;;;-142.21;100.00
5053;BME280;2545;50.892;5.740;2022-10-16T06:04:51;56345.44;;;-142.21;100.00
5053;BME280;2545;50.892;5.740;2022-10-16T06:07:18;56321.91;;;-142.21;100.00
5053;BME280;2545;50.892;5.740;2022-10-16T06:09:44;56312.09;;;-142.21;100.00
5053;BME280;2545;50.892;5.740;2022-10-16T06:12:09;56331.72;;;-142.21;100.00
5053;BME280;2545;50.892;5.740;2022-10-16T06:14:34;56321.91;;;-142.21;100.00
5053;BME280;2545;50.892;5.740;2022-10-16T06:16:59;56317.97;;;-142.21;100.00
5053;BME280;2545;50.892;5.740;2022-10-16T06:19:25;56306.22;;;-142.21;100.00
5053;BME280;2545;50.892;5.740;2022-10-16T06:21:50;56339.56;;;-142.21;100.00
5053;BME280;2545;50.892;5.740;2022-10-16T06:24:15;56331.72;;;-142.21;100.00
5053;BME280;2545;50.892;5.740;2022-10-16T06:26:41;56355.25;;;-142.21;100.00
5053;BME280;2545;50.892;5.740;2022-10-16T06:29:06;56290.53;;;-142.21;100.00
5053;BME280;2545;50.892;5.740;2022-10-16T06:31:31;56361.13;;;-142.21;100.00
5053;BME280;2545;50.892;5.740;2022-10-16T06:33:59;56345.44;;;-142.21;100.00
5053;BME280;2545;50.892;5.740;2022-10-16T06:36:25;56298.38;;;-142.21;100.00
5053;BME280;2545;50.892;5.740;2022-10-16T06:38:51;56302.28;;;-142.21;100.00
5053;BME280;2545;50.892;5.740;2022-10-16T06:41:19;56308.19;;;-142.21;100.00
5053;BME280;2545;50.892;5.740;2022-10-16T06:43:45;56302.28;;;-142.21;100.00
5053;BME280;2545;50.892;5.740;2022-10-16T06:46:12;56321.91;;;-142.21;100.00
5053;BME280;2545;50.892;5.740;2022-10-16T06:48:38;56333.69;;;-142.21;100.00
5053;BME280;2545;50.892;5.740;2022-10-16T06:51:10;56292.50;;;-142.21;100.00
5053;BME280;2545;50.892;5.740;2022-10-16T06:53:38;56339.56;;;-142.21;100.00
5053;BME280;2545;50.892;5.740;2022-10-16T06:56:11;56367.00;;;-142.21;100.00
5053;BME280;2545;50.892;5.740;2022-10-16T06:58:37;56323.88;;;-142.21;100.00
5053;BME280;2545;50.892;5.740;2022-10-16T07:01:03;56327.78;;;-142.21;100.00
5053;BME280;2545;50.892;5.740;2022-10-16T07:03:29;56302.28;;;-142.21;100.00
5053;BME280;2545;50.892;5.740;2022-10-16T07:05:54;56308.19;;;-142.21;100.00
5053;BME280;2545;50.892;5.740;2022-10-16T07:08:19;56316.03;;;-142.21;100.00
5053;BME280;2545;50.892;5.740;2022-10-16T07:10:45;56280.72;;;-142.21;100.00
5053;BME280;2545;50.892;5.740;2022-10-16T07:13:10;56325.84;;;-142.21;100.00
5053;BME280;2545;50.892;5.740;2022-10-16T07:15:38;56290.53;;;-142.21;100.00
5053;BME280;2545;50.892;5.740;2022-10-16T07:18:04;56294.47;;;-142.21;100.00
5053;BME280;2545;50.892;5.740;2022-10-16T07:20:29;56317.97;;;-142.21;100.00
5053;BME280;2545;50.892;5.740;2022-10-16T07:22:54;56351.31;;;-142.21;100.00
5053;BME280;2545;50.892;5.740;2022-10-16T07:25:20;56353.28;;;-142.21;100.00
5053;BME280;2545;50.892;5.740;2022-10-16T07:27:45;56302.28;;;-142.21;100.00
5053;BME280;2545;50.892;5.740;2022-10-16T07:30:10;56329.75;;;-142.21;100.00
5053;BME280;2545;50.892;5.740;2022-10-16T07:32:36;56368.97;;;-142.21;100.00
5053;BME280;2545;50.892;5.740;2022-10-16T07:35:01;56308.19;;;-142.21;100.00
5053;BME280;2545;50.892;5.740;2022-10-16T07:37:26;56321.91;;;-142.21;100.00
5053;BME280;2545;50.892;5.740;2022-10-16T07:39:52;56333.69;;;-142.21;100.00
5053;BME280;2545;50.892;5.740;2022-10-16T07:42:17;56319.94;;;-142.21;100.00
5053;BME280;2545;50.892;5.740;2022-10-16T07:44:42;56316.03;;;-142.21;100.00
5053;BME280;2545;50.892;5.740;2022-10-16T07:47:09;56343.47;;;-142.21;100.00
5053;BME280;2545;50.892;5.740;2022-10-16T07:49:34;56317.97;;;-142.21;100.00
5053;BME280;2545;50.892;5.740;2022-10-16T07:51:59;56284.66;;;-142.21;100.00
5053;BME280;2545;50.892;5.740;2022-10-16T07:54:25;56323.88;;;-142.21;100.00
5053;BME280;2545;50.892;5.740;2022-10-16T07:56:50;56333.69;;;-142.21;100.00
5053;BME280;2545;50.892;5.740;2022-10-16T07:59:15;56319.94;;;-142.21;100.00
5053;BME280;2545;50.892;5.740;2022-10-16T08:01:41;56284.66;;;-142.21;100.00
5053;BME280;2545;50.892;5.740;2022-10-16T08:04:08;56284.66;;;-142.21;100.00
5053;BME280;2545;50.892;5.740;2022-10-16T08:06:38;56296.41;;;-142.21;100.00
5053;BME280;2545;50.892;5.740;2022-10-16T08:09:05;56296.41;;;-142.21;100.00
5053;BME280;2545;50.892;5.740;2022-10-16T08:11:31;56288.56;;;-142.21;100.00
5053;BME280;2545;50.892;5.740;2022-10-16T08:13:56;56272.88;;;-142.21;100.00
5053;BME280;2545;50.892;5.740;2022-10-16T08:16:21;56292.50;;;-142.21;100.00
5053;BME280;2545;50.892;5.740;2022-10-16T08:18:47;56306.22;;;-142.21;100.00
5053;BME280;2545;50.892;5.740;2022-10-16T08:21:16;56259.16;;;-142.21;100.00
5053;BME280;2545;50.892;5.740;2022-10-16T08:23:41;56319.94;;;-142.21;100.00
5053;BME280;2545;50.892;5.740;2022-10-16T08:26:08;56270.91;;;-142.21;96.51
5053;BME280;2545;50.892;5.740;2022-10-16T08:28:34;56253.28;;;-142.21;98.50
5053;BME280;2545;50.892;5.740;2022-10-16T08:31:11;56237.59;;;-142.21;98.75
5053;BME280;2545;50.892;5.740;2022-10-16T08:33:38;56276.81;;;-142.21;95.75
5053;BME280;2545;50.892;5.740;2022-10-16T08:36:05;56268.97;;;-142.21;90.83
5053;BME280;2545;50.892;5.740;2022-10-16T08:38:30;56257.19;;;-142.21;91.32
5053;BME280;2545;50.892;5.740;2022-10-16T08:44:30;56300.34;;;-142.21;86.56
5053;BME280;2545;50.892;5.740;2022-10-16T08:47:23;56249.34;;;-142.21;90.28
5053;BME280;2545;50.892;5.740;2022-10-16T08:52:18;56280.72;;;-142.21;86.57
5053;BME280;2545;50.892;5.740;2022-10-16T08:54:47;56292.50;;;-142.21;87.38
5053;BME280;2545;50.892;5.740;2022-10-16T08:57:22;56253.28;;;-142.21;86.88
5053;BME280;2545;50.892;5.740;2022-10-16T08:59:48;56253.28;;;-142.21;84.46
5053;BME280;2545;50.892;5.740;2022-10-16T09:10:47;56255.22;;;-142.21;77.19
5053;BME280;2545;50.892;5.740;2022-10-16T09:13:31;56241.50;;;-142.21;76.62
5053;BME280;2545;50.892;5.740;2022-10-16T09:16:28;56202.28;;;-142.21;75.59
5053;BME280;2545;50.892;5.740;2022-10-16T09:19:31;56239.56;;;-142.21;74.15
5053;BME280;2545;50.892;5.740;2022-10-16T09:22:04;56231.72;;;-142.21;71.89
5053;BME280;2545;50.892;5.740;2022-10-16T09:24:36;56276.81;;;-142.21;69.28
5053;BME280;2545;50.892;5.740;2022-10-16T09:27:01;56265.03;;;-142.21;70.05
5053;BME280;2545;50.892;5.740;2022-10-16T09:29:26;56217.97;;;-142.21;67.64
5053;BME280;2545;50.892;5.740;2022-10-16T09:31:54;56272.88;;;-142.21;66.46
5053;BME280;2545;50.892;5.740;2022-10-16T09:34:36;56196.41;;;-142.21;65.06
5053;BME280;2545;50.892;5.740;2022-10-16T09:37:09;56227.78;;;-142.21;64.75
5053;BME280;2545;50.892;5.740;2022-10-16T09:39:48;56225.81;;;-142.21;64.45
5053;BME280;2545;50.892;5.740;2022-10-16T09:42:23;56219.94;;;-142.21;63.15
5053;BME280;2545;50.892;5.740;2022-10-16T09:44:52;56190.53;;;-142.21;59.04
5053;BME280;2545;50.892;5.740;2022-10-16T09:47:21;56235.63;;;-142.21;56.93
5053;BME280;2545;50.892;5.740;2022-10-16T09:50:27;56251.31;;;-142.21;58.00
5053;BME280;2545;50.892;5.740;2022-10-16T09:53:08;56194.44;;;-142.21;58.71
5053;BME280;2545;50.892;5.740;2022-10-16T09:55:35;56233.66;;;-142.21;61.22
5053;BME280;2545;50.892;5.740;2022-10-16T09:58:01;56263.06;;;-142.21;62.86
5053;BME280;2545;50.892;5.740;2022-10-16T10:00:26;56225.81;;;-142.21;64.86
5053;BME280;2545;50.892;5.740;2022-10-16T10:02:53;56229.75;;;-142.21;64.13
5053;BME280;2545;50.892;5.740;2022-10-16T10:05:28;56241.50;;;-142.21;64.62
5053;BME280;2545;50.892;5.740;2022-10-16T10:07:59;56170.91;;;-142.21;61.23
5053;BME280;2545;50.892;5.740;2022-10-16T10:10:27;56227.78;;;-142.21;55.95
5053;BME280;2545;50.892;5.740;2022-10-16T10:12:53;56210.13;;;-142.21;52.00
5053;BME280;2545;50.892;5.740;2022-10-16T10:15:20;56190.53;;;-142.21;49.33
5053;BME280;2545;50.892;5.740;2022-10-16T10:17:50;56167.00;;;-142.21;48.47
5053;BME280;2545;50.892;5.740;2022-10-16T10:20:29;56204.25;;;-142.21;48.77
5053;BME280;2545;50.892;5.740;2022-10-16T10:22:56;56186.59;;;-142.21;47.84
5053;BME280;2545;50.892;5.740;2022-10-16T10:31:03;56096.41;;;-142.21;45.85
5053;BME280;2545;50.892;5.740;2022-10-16T10:36:38;56129.75;;;-142.21;46.30
5053;BME280;2545;50.892;5.740;2022-10-16T10:39:28;56100.31;;;-142.21;44.39
5053;BME280;2545;50.892;5.740;2022-10-16T10:42:36;56106.22;;;-142.21;43.33
5053;BME280;2545;50.892;5.740;2022-10-16T10:44:55;56157.19;;;-142.21;43.87
5053;BME280;2545;50.892;5.740;2022-10-16T10:50:20;56151.31;;;-142.21;50.19
5053;BME280;2545;50.892;5.740;2022-10-16T10:55:39;56127.78;;;-142.21;46.92
5053;BME280;2545;50.892;5.740;2022-10-16T10:58:33;56114.06;;;-142.21;44.51
5053;BME280;2545;50.892;5.740;2022-10-16T11:01:14;56139.53;;;-142.21;43.39
5053;BME280;2545;50.892;5.740;2022-10-16T11:06:41;56131.69;;;-142.21;43.07
5053;BME280;2545;50.892;5.740;2022-10-16T11:09:36;56112.09;;;-142.21;42.85
5053;BME280;2545;50.892;5.740;2022-10-16T11:12:21;56125.81;;;-142.21;43.71
5053;BME280;2545;50.892;5.740;2022-10-16T11:14:57;56116.00;;;-142.21;43.75
5053;BME280;2545;50.892;5.740;2022-10-16T11:17:31;56123.84;;;-142.21;44.03
5053;BME280;2545;50.892;5.740;2022-10-16T11:20:28;56100.31;;;-142.21;43.88
5053;BME280;2545;50.892;5.740;2022-10-16T11:23:00;56121.91;;;-142.21;41.85
5053;BME280;2545;50.892;5.740;2022-10-16T11:25:31;56135.63;;;-142.21;43.38
5053;BME280;2545;50.892;5.740;2022-10-16T11:28:06;56116.00;;;-142.21;43.14
5053;BME280;2545;50.892;5.740;2022-10-16T11:30:40;56151.31;;;-142.21;43.89
5053;BME280;2545;50.892;5.740;2022-10-16T11:35:44;56133.66;;;-142.21;41.52
5053;BME280;2545;50.892;5.740;2022-10-16T11:41:12;56149.34;;;-142.21;42.47
5053;BME280;2545;50.892;5.740;2022-10-16T11:43:51;56092.47;;;-142.21;40.88
5053;BME280;2545;50.892;5.740;2022-10-16T11:46:21;56072.88;;;-142.21;40.65
5053;BME280;2545;50.892;5.740;2022-10-16T11:48:54;56094.44;;;-142.21;39.75
5053;BME280;2545;50.892;5.740;2022-10-16T11:51:36;56080.72;;;-142.21;38.46
5053;BME280;2545;50.892;5.740;2022-10-16T11:56:37;56088.56;;;-142.21;36.81
5053;BME280;2545;50.892;5.740;2022-10-16T11:59:22;56043.47;;;-142.21;36.73
5053;BME280;2545;50.892;5.740;2022-10-16T12:01:55;56061.09;;;-142.21;37.94
5053;BME280;2545;50.892;5.740;2022-10-16T12:04:33;56076.78;;;-142.21;39.50
5053;BME280;2545;50.892;5.740;2022-10-16T12:09:32;56125.81;;;-142.21;42.12
5053;BME280;2545;50.892;5.740;2022-10-16T12:11:59;56092.47;;;-142.21;41.92
5053;BME280;2545;50.892;5.740;2022-10-16T12:17:01;56139.53;;;-142.21;42.34
5053;BME280;2545;50.892;5.740;2022-10-16T12:19:29;56119.94;;;-142.21;42.86
5053;BME280;2545;50.892;5.740;2022-10-16T12:21:57;56168.97;;;-142.21;43.12
5053;BME280;2545;50.892;5.740;2022-10-16T12:24:37;56149.34;;;-142.21;41.77
5053;BME280;2545;50.892;5.740;2022-10-16T12:27:06;56112.09;;;-142.21;41.45
5053;BME280;2545;50.892;5.740;2022-10-16T12:32:00;56053.25;;;-142.21;36.49
5053;BME280;2545;50.892;5.740;2022-10-16T12:34:36;56092.47;;;-142.21;38.06
5053;BME280;2545;50.892;5.740;2022-10-16T12:37:13;56086.59;;;-142.21;36.33
5053;BME280;2545;50.892;5.740;2022-10-16T12:39:39;56039.53;;;-142.21;36.79
5053;BME280;2545;50.892;5.740;2022-10-16T12:44:44;55978.75;;;-142.21;31.51
5053;BME280;2545;50.892;5.740;2022-10-16T12:47:23;55968.94;;;-142.21;30.89
5053;BME280;2545;50.892;5.740;2022-10-16T12:49:53;56016.00;;;-142.21;32.53
5053;BME280;2545;50.892;5.740;2022-10-16T12:52:36;55959.16;;;-142.21;31.00
5053;BME280;2545;50.892;5.740;2022-10-16T12:55:03;55986.59;;;-142.21;31.44
5053;BME280;2545;50.892;5.740;2022-10-16T12:57:56;55947.38;;;-142.21;31.33
5053;BME280;2545;50.892;5.740;2022-10-16T13:03:53;56092.47;;;-142.21;37.60
5053;BME280;2545;50.892;5.740;2022-10-16T13:15:06;56112.09;;;-142.21;41.06
5053;BME280;2545;50.892;5.740;2022-10-16T13:20:56;56117.97;;;-142.21;42.86
5053;BME280;2545;50.892;5.740;2022-10-16T13:28:45;56137.59;;;-142.21;42.15
5053;BME280;2545;50.892;5.740;2022-10-16T13:31:15;56123.84;;;-142.21;40.17
5053;BME280;2545;50.892;5.740;2022-10-16T13:33:46;56129.75;;;-142.21;41.36
5053;BME280;2545;50.892;5.740;2022-10-16T13:36:24;56159.16;;;-142.21;41.63
5053;BME280;2545;50.892;5.740;2022-10-16T13:42:07;56021.88;;;-142.21;37.50
5053;BME280;2545;50.892;5.740;2022-10-16T13:44:49;56082.69;;;-142.21;36.05
5053;BME280;2545;50.892;5.740;2022-10-16T13:47:17;56098.38;;;-142.21;35.99
5053;BME280;2545;50.892;5.740;2022-10-16T13:49:43;56084.63;;;-142.21;36.31
5053;BME280;2545;50.892;5.740;2022-10-16T13:52:18;56092.47;;;-142.21;37.39
5053;BME280;2545;50.892;5.740;2022-10-16T13:54:44;56106.22;;;-142.21;39.22
5053;BME280;2545;50.892;5.740;2022-10-16T13:57:13;56139.53;;;-142.21;40.93
5053;BME280;2545;50.892;5.740;2022-10-16T13:59:39;56167.00;;;-142.21;41.57
5053;BME280;2545;50.892;5.740;2022-10-16T14:04:57;56147.38;;;-142.21;43.89
5053;BME280;2545;50.892;5.740;2022-10-16T14:07:28;56106.22;;;-142.21;44.81
5053;BME280;2545;50.892;5.740;2022-10-16T14:09:55;56174.84;;;-142.21;46.58
5053;BME280;2545;50.892;5.740;2022-10-16T14:12:21;56174.84;;;-142.21;47.04
5053;BME280;2545;50.892;5.740;2022-10-16T14:14:50;56163.06;;;-142.21;48.62
5053;BME280;2545;50.892;5.740;2022-10-16T14:17:20;56165.03;;;-142.21;49.36
5053;BME280;2545;50.892;5.740;2022-10-16T14:19:48;56202.28;;;-142.21;49.58
5053;BME280;2545;50.892;5.740;2022-10-16T14:22:26;56180.72;;;-142.21;50.28
5053;BME280;2545;50.892;5.740;2022-10-16T14:24:52;56167.00;;;-142.21;51.02
5053;BME280;2545;50.892;5.740;2022-10-16T14:27:27;56174.84;;;-142.21;53.28
5053;BME280;2545;50.892;5.740;2022-10-16T14:30:13;56151.31;;;-142.21;54.71
5053;BME280;2545;50.892;5.740;2022-10-16T14:32:41;56184.66;;;-142.21;55.95